createdAt,value
2023-04-04T00:02:08.436Z,5.10
2023-04-04T00:04:48.613Z,5.57
2023-04-04T00:07:26.652Z,4.55
2023-04-04T00:09:59.688Z,5.10
2023-04-04T00:12:34.886Z,4.90
2023-04-04T00:15:06.645Z,4.65
2023-04-04T00:17:36.846Z,4.50
2023-04-04T00:20:10.357Z,4.85
2023-04-04T00:22:44.945Z,5.85
2023-04-04T00:25:19.297Z,6.50
2023-04-04T00:27:54.852Z,5.15
2023-04-04T00:30:31.740Z,4.28
2023-04-04T00:33:03.349Z,4.22
2023-04-04T00:35:35.973Z,3.80
2023-04-04T00:38:07.858Z,4.57
2023-04-04T00:40:51.614Z,3.90
2023-04-04T00:43:26.970Z,3.63
2023-04-04T00:45:59.260Z,3.42
2023-04-04T00:48:33.750Z,3.30
2023-04-04T00:51:08.250Z,4.75
2023-04-04T00:53:46.940Z,3.40
2023-04-04T00:56:27.984Z,3.33
2023-04-04T00:59:04.960Z,3.33
2023-04-04T01:01:39.706Z,3.70
2023-04-04T01:04:19.672Z,3.70
2023-04-04T01:06:54.930Z,3.13
2023-04-04T01:09:27.966Z,3.80
2023-04-04T01:12:03.326Z,4.50
2023-04-04T01:14:39.915Z,4.88
2023-04-04T01:17:19.328Z,4.72
2023-04-04T01:20:06.134Z,4.40
2023-04-04T01:22:51.122Z,6.60
2023-04-04T01:25:37.173Z,4.95
2023-04-04T01:28:15.943Z,3.90
2023-04-04T01:30:50.059Z,4.18
2023-04-04T01:33:34.603Z,4.63
2023-04-04T01:36:17.092Z,5.03
2023-04-04T01:39:00.633Z,4.90
2023-04-04T01:41:36.452Z,5.65
2023-04-04T01:44:18.736Z,4.50
2023-04-04T01:46:55.160Z,3.70
2023-04-04T01:49:27.069Z,4.18
2023-04-04T01:52:06.065Z,3.92
2023-04-04T01:54:44.376Z,4.55
2023-04-04T01:57:24.256Z,5.28
2023-04-04T01:59:59.154Z,5.15
2023-04-04T02:02:31.431Z,3.95
2023-04-04T02:05:07.037Z,4.05
2023-04-04T02:07:44.355Z,3.65
2023-04-04T02:10:27.756Z,3.70
2023-04-04T02:13:04.827Z,3.35
2023-04-04T02:15:41.235Z,2.95
2023-04-04T02:18:12.972Z,5.00
2023-04-04T02:20:43.698Z,4.63
2023-04-04T02:23:16.715Z,4.32
2023-04-04T02:25:55.562Z,3.72
2023-04-04T02:28:35.970Z,3.80
2023-04-04T02:31:07.120Z,3.17
2023-04-04T02:33:37.917Z,3.17
2023-04-04T02:36:21.347Z,3.30
2023-04-04T02:38:55.635Z,4.03
2023-04-04T02:41:35.478Z,4.07
2023-04-04T02:44:16.853Z,4.25
2023-04-04T02:46:52.084Z,3.35
2023-04-04T02:49:29.927Z,3.85
2023-04-04T02:52:02.151Z,3.33
2023-04-04T02:54:44.395Z,3.10
2023-04-04T02:57:18.784Z,3.70
2023-04-04T02:59:53.623Z,3.20
2023-04-04T03:02:30.572Z,3.13
2023-04-04T03:05:05.315Z,3.38
2023-04-04T03:07:39.139Z,3.10
2023-04-04T03:10:11.558Z,3.05
2023-04-04T03:12:43.490Z,3.58
2023-04-04T03:15:26.629Z,3.28
2023-04-04T03:17:58.880Z,4.53
2023-04-04T03:20:35.840Z,5.80
2023-04-04T03:23:09.907Z,3.92
2023-04-04T03:25:51.073Z,3.45
2023-04-04T03:28:32.015Z,4.10
2023-04-04T03:31:15.433Z,3.17
2023-04-04T03:33:59.545Z,2.97
2023-04-04T03:36:29.229Z,3.38
2023-04-04T03:39:06.871Z,3.30
2023-04-04T03:41:39.474Z,3.20
2023-04-04T03:44:16.635Z,2.72
2023-04-04T03:46:59.340Z,2.92
2023-04-04T03:49:35.740Z,3.50
2023-04-04T03:52:04.643Z,3.00
2023-04-04T03:54:42.852Z,3.17
2023-04-04T03:57:13.354Z,3.63
2023-04-04T03:59:47.400Z,3.30
2023-04-04T04:02:25.207Z,2.90
2023-04-04T04:04:55.948Z,2.90
2023-04-04T04:07:30.065Z,2.92
2023-04-04T04:10:06.352Z,3.03
2023-04-04T04:12:41.213Z,3.08
2023-04-04T04:15:23.271Z,2.92
2023-04-04T04:18:15.738Z,2.90
2023-04-04T04:20:55.494Z,3.05
2023-04-04T04:23:27.242Z,3.05
2023-04-04T04:25:58.024Z,3.42
2023-04-04T04:28:39.072Z,2.92
2023-04-04T04:31:21.279Z,3.67
2023-04-04T04:33:59.874Z,2.83
2023-04-04T04:36:42.332Z,3.33
2023-04-04T04:39:41.677Z,3.35
2023-04-04T04:42:51.872Z,3.20
2023-04-04T04:45:29.662Z,3.20
2023-04-04T04:48:17.328Z,3.25
2023-04-04T04:51:05.081Z,3.55
2023-04-04T04:53:48.934Z,3.40
2023-04-04T04:56:28.937Z,3.67
2023-04-04T04:59:11.727Z,3.65
2023-04-04T05:01:48.185Z,3.72
2023-04-04T05:04:23.495Z,3.38
2023-04-04T05:07:24.276Z,3.85
2023-04-04T05:09:55.858Z,3.90
2023-04-04T05:12:33.285Z,3.42
2023-04-04T05:15:08.156Z,4.00
2023-04-04T05:17:53.495Z,4.22
2023-04-04T05:20:26.007Z,4.85
2023-04-04T05:23:08.221Z,4.18
2023-04-04T05:25:45.399Z,4.85
2023-04-04T05:28:19.254Z,7.05
2023-04-04T05:30:54.314Z,6.32
2023-04-04T05:33:33.080Z,7.00
2023-04-04T05:36:32.489Z,9.73
2023-04-04T05:39:30.817Z,6.20
2023-04-04T05:42:16.210Z,9.55
2023-04-04T05:44:55.271Z,5.75
2023-04-04T05:47:27.175Z,7.50
2023-04-04T05:50:01.480Z,8.30
2023-04-04T05:52:36.174Z,8.70
2023-04-04T05:55:16.803Z,9.45
2023-04-04T05:57:56.465Z,14.13
2023-04-04T06:00:35.080Z,7.25
2023-04-04T06:03:14.881Z,7.63
2023-04-04T06:05:58.733Z,8.48
2023-04-04T06:08:43.181Z,10.07
2023-04-04T06:11:39.054Z,10.60
2023-04-04T06:14:18.794Z,7.50
2023-04-04T06:16:53.289Z,6.05
2023-04-04T06:19:33.105Z,4.05
2023-04-04T06:22:06.980Z,5.70
2023-04-04T06:24:52.815Z,5.13
2023-04-04T06:27:40.649Z,4.97
2023-04-04T06:30:18.456Z,5.70
2023-04-04T06:32:57.912Z,4.88
2023-04-04T06:35:33.514Z,4.35
2023-04-04T06:38:14.714Z,4.65
2023-04-04T06:40:44.263Z,3.95
2023-04-04T06:43:22.183Z,3.80
2023-04-04T06:45:55.156Z,4.05
2023-04-04T06:48:27.209Z,3.67
2023-04-04T06:50:59.124Z,3.90
2023-04-04T06:53:32.217Z,7.05
2023-04-04T06:56:05.239Z,5.30
2023-04-04T06:58:51.067Z,4.60
2023-04-04T07:01:25.915Z,5.28
2023-04-04T07:04:00.757Z,4.97
2023-04-04T07:06:31.216Z,11.35
2023-04-04T07:09:21.988Z,9.48
2023-04-04T07:12:08.357Z,5.68
2023-04-04T07:14:53.112Z,5.25
2023-04-04T07:17:25.485Z,7.90
2023-04-04T07:19:56.938Z,5.32
2023-04-04T07:22:36.939Z,5.95
2023-04-04T07:25:14.419Z,4.75
2023-04-04T07:27:50.441Z,3.83
2023-04-04T07:30:36.420Z,4.15
2023-04-04T07:33:08.282Z,4.45
2023-04-04T07:35:45.656Z,3.65
2023-04-04T07:38:25.370Z,4.18
2023-04-04T07:41:00.676Z,4.07
2023-04-04T07:43:35.147Z,4.45
2023-04-04T07:46:23.658Z,6.90
2023-04-04T07:48:54.205Z,7.03
2023-04-04T07:51:30.239Z,7.45
2023-04-04T07:54:02.359Z,4.90
2023-04-04T07:56:40.525Z,4.30
2023-04-04T07:59:11.124Z,6.32
2023-04-04T08:01:57.731Z,4.38
2023-04-04T08:04:27.377Z,5.90
2023-04-04T08:07:08.593Z,4.10
2023-04-04T08:09:45.885Z,5.78
2023-04-04T08:12:25.828Z,4.53
2023-04-04T08:14:56.309Z,4.65
2023-04-04T08:17:38.644Z,4.00
2023-04-04T08:22:56.491Z,5.70
2023-04-04T08:25:37.158Z,4.70
2023-04-04T08:28:13.039Z,5.20
2023-04-04T08:30:45.223Z,5.18
2023-04-04T08:33:16.376Z,5.45
2023-04-04T08:35:54.645Z,4.50
2023-04-04T08:38:33.765Z,4.35
2023-04-04T08:41:05.537Z,4.00
2023-04-04T08:43:43.952Z,4.60
2023-04-04T08:46:29.364Z,4.72
2023-04-04T08:49:05.185Z,4.35
2023-04-04T08:51:39.747Z,4.43
2023-04-04T08:54:24.878Z,3.63
2023-04-04T08:57:06.962Z,4.60
2023-04-04T08:59:45.489Z,4.40
2023-04-04T09:05:27.738Z,4.05
2023-04-04T09:08:12.376Z,4.15
2023-04-04T09:10:47.430Z,3.83
2023-04-04T09:13:20.091Z,4.30
2023-04-04T09:15:57.114Z,3.20
2023-04-04T09:18:27.401Z,4.13
2023-04-04T09:21:29.344Z,6.75
2023-04-04T09:24:08.567Z,5.57
2023-04-04T09:26:55.304Z,4.55
2023-04-04T09:29:38.653Z,5.55
2023-04-04T09:32:11.983Z,4.00
2023-04-04T09:34:48.017Z,3.75
2023-04-04T09:37:28.855Z,3.35
2023-04-04T09:40:03.305Z,4.07
2023-04-04T09:42:34.648Z,4.07
2023-04-04T09:45:17.134Z,4.00
2023-04-04T09:48:05.039Z,4.07
2023-04-04T09:50:39.761Z,4.88
2023-04-04T09:53:25.644Z,4.70
2023-04-04T09:55:56.075Z,4.70
2023-04-04T09:58:34.221Z,5.03
2023-04-04T10:01:17.109Z,3.90
2023-04-04T10:03:58.780Z,5.38
2023-04-04T10:06:32.931Z,4.05
2023-04-04T10:09:18.855Z,3.70
2023-04-04T10:11:47.326Z,4.72
2023-04-04T10:14:23.078Z,4.38
2023-04-04T10:17:03.705Z,4.82
2023-04-04T10:19:35.795Z,4.35
2023-04-04T10:22:08.241Z,4.30
2023-04-04T10:24:43.117Z,4.55
2023-04-04T10:27:13.797Z,4.32
2023-04-04T10:29:47.236Z,5.75
2023-04-04T10:32:32.552Z,4.22
2023-04-04T10:35:09.026Z,5.95
2023-04-04T10:37:55.384Z,4.20
2023-04-04T10:40:33.218Z,4.50
2023-04-04T10:43:07.564Z,4.78
2023-04-04T10:45:44.942Z,4.60
2023-04-04T10:48:18.116Z,6.35
2023-04-04T10:50:50.936Z,5.20
2023-04-04T10:53:26.815Z,4.57
2023-04-04T10:56:01.343Z,5.47
2023-04-04T10:58:41.071Z,4.40
2023-04-04T11:01:20.431Z,5.15
2023-04-04T11:04:21.670Z,4.35
2023-04-04T11:07:26.363Z,5.90
2023-04-04T11:10:02.521Z,4.95
2023-04-04T11:12:47.303Z,4.35
2023-04-04T11:15:24.571Z,6.05
2023-04-04T11:18:27.055Z,4.63
2023-04-04T11:21:16.037Z,7.05
2023-04-04T11:24:32.614Z,6.07
2023-04-04T11:27:03.229Z,5.53
2023-04-04T11:29:54.398Z,5.17
2023-04-04T11:33:05.944Z,3.95
2023-04-04T11:35:41.024Z,4.57
2023-04-04T11:38:17.182Z,5.30
2023-04-04T11:40:59.780Z,4.85
2023-04-04T11:43:37.662Z,4.45
2023-04-04T11:46:30.126Z,4.65
2023-04-04T11:49:04.164Z,5.07
2023-04-04T11:51:42.794Z,4.78
2023-04-04T11:54:22.553Z,3.97
2023-04-04T11:57:02.790Z,4.47
2023-04-04T11:59:39.128Z,4.00
2023-04-04T12:02:15.881Z,3.92
2023-04-04T12:04:49.440Z,3.80
2023-04-04T12:07:26.740Z,6.95
2023-04-04T12:10:08.188Z,4.93
2023-04-04T12:12:45.334Z,5.07
2023-04-04T12:15:21.191Z,5.07
2023-04-04T12:17:59.213Z,4.55
2023-04-04T12:20:30.932Z,5.15
2023-04-04T12:23:06.022Z,3.80
2023-04-04T12:25:47.054Z,4.25
2023-04-04T12:28:28.566Z,4.93
2023-04-04T12:30:59.359Z,6.07
2023-04-04T12:33:38.237Z,5.30
2023-04-04T12:36:12.835Z,4.27
2023-04-04T12:39:04.366Z,6.90
2023-04-04T12:41:37.570Z,5.00
2023-04-04T12:44:08.978Z,4.80
2023-04-04T12:46:41.719Z,4.67
2023-04-04T12:49:17.693Z,4.43
2023-04-04T12:51:52.826Z,3.92
2023-04-04T12:54:31.648Z,4.17
2023-04-04T12:57:09.130Z,3.70
2023-04-04T12:59:48.214Z,4.47
2023-04-04T13:02:21.442Z,4.10
2023-04-04T13:05:05.730Z,4.13
2023-04-04T13:07:46.000Z,5.10
2023-04-04T13:10:24.717Z,4.43
2023-04-04T13:13:06.670Z,4.10
2023-04-04T13:15:58.030Z,5.75
2023-04-04T13:18:41.573Z,5.77
2023-04-04T13:21:20.465Z,4.80
2023-04-04T13:24:00.039Z,4.20
2023-04-04T13:26:30.412Z,4.37
2023-04-04T13:29:03.504Z,6.50
2023-04-04T13:31:34.654Z,4.97
2023-04-04T13:34:06.998Z,4.30
2023-04-04T13:36:48.747Z,6.93
2023-04-04T13:39:27.725Z,6.50
2023-04-04T13:42:00.451Z,4.63
2023-04-04T13:44:34.038Z,5.30
2023-04-04T13:47:09.528Z,4.50
2023-04-04T13:49:45.343Z,5.10
2023-04-04T13:52:16.877Z,4.60
2023-04-04T13:54:48.113Z,4.22
2023-04-04T13:57:30.620Z,5.20
2023-04-04T14:00:01.378Z,5.30
2023-04-04T14:02:56.586Z,5.35
2023-04-04T14:05:31.793Z,5.77
2023-04-04T14:08:05.772Z,4.40
2023-04-04T14:10:39.489Z,4.20
2023-04-04T14:13:10.168Z,4.57
2023-04-04T14:15:44.500Z,5.33
2023-04-04T14:18:16.248Z,4.10
2023-04-04T14:20:48.417Z,4.53
2023-04-04T14:23:26.384Z,4.87
2023-04-04T14:25:58.298Z,4.73
2023-04-04T14:28:29.595Z,4.40
2023-04-04T14:30:59.811Z,4.43
2023-04-04T14:33:39.172Z,4.23
2023-04-04T14:36:13.222Z,4.05
2023-04-04T14:38:50.710Z,4.00
2023-04-04T14:41:28.472Z,4.22
2023-04-04T14:44:02.256Z,5.30
2023-04-04T14:46:39.096Z,6.67
2023-04-04T14:49:18.858Z,6.82
2023-04-04T14:51:54.784Z,6.67
2023-04-04T14:54:30.471Z,4.95
2023-04-04T14:57:06.259Z,6.17
2023-04-04T14:59:42.451Z,6.87
2023-04-04T15:02:19.494Z,4.60
2023-04-04T15:04:52.647Z,4.90
2023-04-04T15:07:29.253Z,10.10
2023-04-04T15:10:01.388Z,6.30
2023-04-04T15:12:30.305Z,4.40
2023-04-04T15:15:11.126Z,8.70
2023-04-04T15:17:42.964Z,4.70
2023-04-04T15:20:23.184Z,5.77
2023-04-04T15:22:57.309Z,8.07
2023-04-04T15:25:34.975Z,5.03
2023-04-04T15:28:07.061Z,6.50
2023-04-04T15:30:39.922Z,4.83
2023-04-04T15:33:19.547Z,7.73
2023-04-04T15:35:52.893Z,6.00
2023-04-04T15:38:23.746Z,5.10
2023-04-04T15:41:01.189Z,6.47
2023-04-04T15:43:34.169Z,5.20
2023-04-04T15:46:14.448Z,5.87
2023-04-04T15:48:48.680Z,5.50
2023-04-04T15:51:25.563Z,6.00
2023-04-04T15:54:03.520Z,5.10
2023-04-04T15:56:37.949Z,5.37
2023-04-04T15:59:19.033Z,5.40
2023-04-04T16:01:59.329Z,5.20
2023-04-04T16:04:30.095Z,6.07
2023-04-04T16:07:11.163Z,6.20
2023-04-04T16:09:44.123Z,7.77
2023-04-04T16:12:16.870Z,7.73
2023-04-04T16:15:01.837Z,5.70
2023-04-04T16:17:36.012Z,5.88
2023-04-04T16:20:13.657Z,5.30
2023-04-04T16:22:48.463Z,5.70
2023-04-04T16:25:21.337Z,6.27
2023-04-04T16:28:00.830Z,5.17
2023-04-04T16:30:40.315Z,6.43
2023-04-04T16:33:17.949Z,7.73
2023-04-04T16:35:53.365Z,8.03
2023-04-04T16:38:32.837Z,7.80
2023-04-04T16:41:06.148Z,13.50
2023-04-04T16:43:48.285Z,11.40
2023-04-04T16:46:28.929Z,5.90
2023-04-04T16:49:02.440Z,6.30
2023-04-04T16:51:35.996Z,8.13
2023-04-04T16:54:17.956Z,4.95
2023-04-04T16:56:51.798Z,7.30
2023-04-04T17:02:16.097Z,8.67
2023-04-04T17:04:49.622Z,8.43
2023-04-04T17:07:35.268Z,8.23
2023-04-04T17:10:10.736Z,7.17
2023-04-04T17:12:46.145Z,5.70
2023-04-04T17:15:21.707Z,7.00
2023-04-04T17:17:54.004Z,5.82
2023-04-04T17:20:39.590Z,12.87
2023-04-04T17:23:11.231Z,8.67
2023-04-04T17:25:42.270Z,6.32
2023-04-04T17:28:18.358Z,5.93
2023-04-04T17:31:03.380Z,6.10
2023-04-04T17:33:37.460Z,7.90
2023-04-04T17:36:08.132Z,6.63
2023-04-04T17:38:39.565Z,5.77
2023-04-04T17:41:09.304Z,4.80
2023-04-04T17:43:38.603Z,7.93
2023-04-04T17:46:18.993Z,7.90
2023-04-04T17:48:56.579Z,7.17
2023-04-04T17:51:36.335Z,9.87
2023-04-04T17:54:13.528Z,6.63
2023-04-04T17:56:50.412Z,10.68
2023-04-04T17:59:21.870Z,10.45
2023-04-04T18:01:57.461Z,14.43
2023-04-04T18:04:36.893Z,19.77
2023-04-04T18:07:20.944Z,14.35
2023-04-04T18:09:52.021Z,11.10
2023-04-04T18:12:22.240Z,11.90
2023-04-04T18:15:01.348Z,14.70
2023-04-04T18:17:40.220Z,17.03
2023-04-04T18:20:34.113Z,12.10
2023-04-04T18:23:10.777Z,10.40
2023-04-04T18:25:47.221Z,7.90
2023-04-04T18:28:26.705Z,6.35
2023-04-04T18:31:02.041Z,7.80
2023-04-04T18:33:44.155Z,6.95
2023-04-04T18:36:17.154Z,7.20
2023-04-04T18:38:54.994Z,6.80
2023-04-04T18:41:25.167Z,7.15
2023-04-04T18:43:58.977Z,7.35
2023-04-04T18:46:29.171Z,8.60
2023-04-04T18:49:06.237Z,11.68
2023-04-04T18:51:45.457Z,10.10
2023-04-04T18:54:15.597Z,8.90
2023-04-04T18:56:48.416Z,8.65
2023-04-04T18:59:22.687Z,6.97
2023-04-04T19:01:59.026Z,6.65
2023-04-04T19:04:39.220Z,15.87
2023-04-04T19:07:12.824Z,37.92
2023-04-04T19:09:44.046Z,27.50
2023-04-04T19:12:14.724Z,19.27
2023-04-04T19:14:45.750Z,17.15
2023-04-04T19:17:20.028Z,11.25
2023-04-04T19:19:55.424Z,10.23
2023-04-04T19:22:31.625Z,8.38
2023-04-04T19:25:05.065Z,8.57
2023-04-04T19:27:40.037Z,7.90
2023-04-04T19:30:39.816Z,8.82
2023-04-04T19:33:11.154Z,9.88
2023-04-04T19:35:59.468Z,8.55
2023-04-04T19:38:38.669Z,9.05
2023-04-04T19:41:19.763Z,10.38
2023-04-04T19:43:53.972Z,8.60
2023-04-04T19:46:30.731Z,9.82
2023-04-04T19:49:10.859Z,9.10
2023-04-04T19:52:01.896Z,9.80
2023-04-04T19:54:41.842Z,11.55
2023-04-04T19:57:29.404Z,15.65
2023-04-04T20:03:00.537Z,13.30
2023-04-04T20:06:06.531Z,16.33
2023-04-04T20:08:59.308Z,11.50
2023-04-04T20:11:35.630Z,8.95
2023-04-04T20:14:08.795Z,8.45
2023-04-04T20:16:47.693Z,10.98
2023-04-04T20:19:22.973Z,13.20
2023-04-04T20:21:59.960Z,11.40
2023-04-04T20:24:44.998Z,12.55
2023-04-04T20:27:30.520Z,11.95
2023-04-04T20:30:05.505Z,9.55
2023-04-04T20:32:43.411Z,10.65
2023-04-04T20:35:36.418Z,9.57
2023-04-04T20:38:14.283Z,11.75
2023-04-04T20:43:36.223Z,12.80
2023-04-04T20:46:15.863Z,10.13
2023-04-04T20:49:00.427Z,12.68
2023-04-04T20:51:36.976Z,11.93
2023-04-04T20:54:10.593Z,11.15
2023-04-04T20:57:00.045Z,9.90
2023-04-04T20:59:56.898Z,10.75
2023-04-04T21:02:31.588Z,10.45
2023-04-04T21:05:18.379Z,10.25
2023-04-04T21:08:01.087Z,9.80
2023-04-04T21:11:03.352Z,10.32
2023-04-04T21:13:39.711Z,9.45
2023-04-04T21:16:18.166Z,10.40
2023-04-04T21:18:56.612Z,12.13
2023-04-04T21:21:28.694Z,9.82
2023-04-04T21:24:03.387Z,9.35
2023-04-04T21:26:41.181Z,8.98
2023-04-04T21:29:27.870Z,8.20
2023-04-04T21:32:01.436Z,8.68
2023-04-04T21:34:42.025Z,9.05
2023-04-04T21:37:17.558Z,8.35
2023-04-04T21:39:54.221Z,9.38
2023-04-04T21:42:26.453Z,11.73
2023-04-04T21:45:10.609Z,11.35
2023-04-04T21:47:44.796Z,10.05
2023-04-04T21:50:30.063Z,10.50
2023-04-04T21:53:01.444Z,10.07
2023-04-04T21:55:31.561Z,10.20
2023-04-04T21:58:10.043Z,9.63
2023-04-04T22:00:48.436Z,11.20
2023-04-04T22:03:24.298Z,9.77
2023-04-04T22:06:06.232Z,9.48
2023-04-04T22:08:37.434Z,9.57
2023-04-04T22:11:16.495Z,10.18
2023-04-04T22:13:50.638Z,11.10
2023-04-04T22:16:29.433Z,10.65
2023-04-04T22:19:08.331Z,11.25
2023-04-04T22:21:55.078Z,10.88
2023-04-04T22:24:23.182Z,11.80
2023-04-04T22:27:01.293Z,10.63
2023-04-04T22:29:37.045Z,11.05
2023-04-04T22:32:15.714Z,11.07
2023-04-04T22:34:46.215Z,11.50
2023-04-04T22:37:27.409Z,11.45
2023-04-04T22:40:13.757Z,11.27
2023-04-04T22:42:53.662Z,11.75
2023-04-04T22:45:34.150Z,11.55
2023-04-04T22:48:13.498Z,11.55
2023-04-04T22:50:47.134Z,10.90
2023-04-04T22:53:22.952Z,11.13
2023-04-04T22:55:55.801Z,10.63
2023-04-04T22:58:26.317Z,9.65
2023-04-04T23:01:00.121Z,9.60
2023-04-04T23:03:35.235Z,9.00
2023-04-04T23:06:09.729Z,10.98
2023-04-04T23:08:47.658Z,10.55
2023-04-04T23:11:18.145Z,9.52
2023-04-04T23:13:57.327Z,22.48
2023-04-04T23:16:28.685Z,29.85
2023-04-04T23:19:01.065Z,20.17
2023-04-04T23:21:31.364Z,24.00
2023-04-04T23:24:05.396Z,9.35
2023-04-04T23:26:40.107Z,10.45
2023-04-04T23:29:18.814Z,10.77
2023-04-04T23:31:50.391Z,13.95
2023-04-04T23:34:22.377Z,13.75
2023-04-04T23:36:57.481Z,13.48
2023-04-04T23:39:36.852Z,12.85
2023-04-04T23:42:14.223Z,12.63
2023-04-04T23:44:55.193Z,12.23
2023-04-04T23:47:29.540Z,11.35
2023-04-04T23:50:10.774Z,13.32
2023-04-04T23:52:53.015Z,13.65
2023-04-04T23:55:31.115Z,13.40
2023-04-04T23:58:08.591Z,11.45
